Time;durP1;ratioP1;P1;durP2;ratioP2;P2;SDS_P1;SDS_P2;PMS_P1;PMS_P2;Temp;Humidity;BMP_temperature;BMP_pressure;BME280_temperature;BME280_humidity;BME280_pressure;Samples;Min_cycle;Max_cycle;Signal;HPM_P1;HPM_P2
2023/10/10 00:01:42;;;;;;;8.88;5.40;;;;;;;;;;5055983;28;20466;-63
2023/10/10 00:04:10;;;;;;;12.30;5.93;;;;;;;;;;5055875;28;20466;-63
2023/10/10 00:06:38;;;;;;;8.93;5.70;;;;;;;;;;5056057;28;20107;-62
2023/10/10 00:09:10;;;;;;;8.48;4.93;;;;;;;;;;5055904;28;20029;-62
2023/10/10 00:11:42;;;;;;;9.80;4.97;;;;;;;;;;5055839;28;20029;-63
2023/10/10 00:14:17;;;;;;;8.70;5.25;;;;;;;;;;5055738;28;20068;-63
2023/10/10 00:16:43;;;;;;;10.43;5.80;;;;;;;;;;5055946;28;20549;-63
2023/10/10 00:19:24;;;;;;;11.07;5.65;;;;;;;;;;5055607;28;20021;-64
2023/10/10 00:21:50;;;;;;;8.73;5.50;;;;;;;;;;5055790;28;20450;-64
2023/10/10 00:24:20;;;;;;;9.20;5.43;;;;;;;;;;5055642;28;20044;-63
2023/10/10 00:26:47;;;;;;;10.38;5.38;;;;;;;;;;5055716;28;20029;-63
2023/10/10 00:29:13;;;;;;;10.90;5.40;;;;;;;;;;5069083;28;20021;-62
2023/10/10 00:31:43;;;;;;;8.18;5.22;;;;;;;;;;5065621;28;20086;-64
2023/10/10 00:34:09;;;;;;;9.90;4.97;;;;;;;;;;5055428;28;20033;-62
2023/10/10 00:36:35;;;;;;;12.07;5.80;;;;;;;;;;5055366;28;20600;-63
2023/10/10 00:41:50;;;;;;;9.02;5.63;;;;;;;;;;5069501;28;20017;-63
2023/10/10 00:44:16;;;;;;;9.20;5.30;;;;;;;;;;5075208;28;20025;-63
2023/10/10 00:46:42;;;;;;;11.15;5.30;;;;;;;;;;5075274;28;20035;-64
2023/10/10 00:49:10;;;;;;;8.98;6.10;;;;;;;;;;5075130;28;20024;-64
2023/10/10 00:51:38;;;;;;;9.73;5.57;;;;;;;;;;5074929;28;20081;-63
2023/10/10 00:57:07;;;;;;;8.02;5.70;;;;;;;;;;5052589;28;20094;-63
2023/10/10 00:59:42;;;;;;;9.45;5.32;;;;;;;;;;5039688;28;20049;-62
2023/10/10 01:02:10;;;;;;;9.63;5.82;;;;;;;;;;5032950;28;20095;-63
2023/10/10 01:04:39;;;;;;;9.35;5.38;;;;;;;;;;5033049;28;20035;-63
2023/10/10 01:07:08;;;;;;;9.93;4.82;;;;;;;;;;5032833;28;20033;-63
2023/10/10 01:09:39;;;;;;;8.43;4.97;;;;;;;;;;5032540;28;20025;-63
2023/10/10 01:12:05;;;;;;;9.40;5.38;;;;;;;;;;5032666;28;20030;-62
2023/10/10 01:14:33;;;;;;;8.38;4.80;;;;;;;;;;5032522;28;20088;-63
2023/10/10 01:16:58;;;;;;;11.38;4.88;;;;;;;;;;5032678;28;20026;-64
2023/10/10 01:19:29;;;;;;;9.00;5.00;;;;;;;;;;5032589;28;20042;-64
2023/10/10 01:22:04;;;;;;;9.20;5.00;;;;;;;;;;5032686;28;20098;-63
2023/10/10 01:24:32;;;;;;;8.52;5.10;;;;;;;;;;5032146;28;20042;-63
2023/10/10 01:27:15;;;;;;;6.32;4.60;;;;;;;;;;5032370;28;20046;-64
2023/10/10 01:29:40;;;;;;;10.10;5.07;;;;;;;;;;5043858;28;20029;-64
2023/10/10 01:32:06;;;;;;;6.53;4.45;;;;;;;;;;5044755;28;20044;-62
2023/10/10 01:34:32;;;;;;;6.35;4.55;;;;;;;;;;5054315;28;20029;-67
2023/10/10 01:37:23;;;;;;;8.20;4.53;;;;;;;;;;5054125;28;20029;-66
2023/10/10 01:40:15;;;;;;;6.75;4.80;;;;;;;;;;5054102;28;20033;-66
2023/10/10 01:42:53;;;;;;;6.00;4.15;;;;;;;;;;5034368;28;20087;-67
2023/10/10 01:45:27;;;;;;;9.57;4.85;;;;;;;;;;5034252;28;20037;-67
2023/10/10 01:48:26;;;;;;;8.18;4.68;;;;;;;;;;5034232;28;20151;-67
2023/10/10 01:50:46;;;;;;;6.32;4.50;;;;;;;;;;5034507;28;20106;-67
2023/10/10 01:53:12;;;;;;;8.93;5.47;;;;;;;;;;5033893;28;20040;-67
2023/10/10 01:55:37;;;;;;;8.32;4.85;;;;;;;;;;5034007;28;20030;-67
2023/10/10 01:58:10;;;;;;;9.52;5.90;;;;;;;;;;5033978;28;20028;-65
2023/10/10 02:00:35;;;;;;;7.75;5.07;;;;;;;;;;5053017;28;20032;-66
2023/10/10 02:03:01;;;;;;;8.65;5.05;;;;;;;;;;5053657;28;20029;-64
2023/10/10 02:08:09;;;;;;;11.52;4.93;;;;;;;;;;5053562;28;20033;-67
2023/10/10 02:10:36;;;;;;;8.93;5.05;;;;;;;;;;5051480;28;20033;-67
2023/10/10 02:13:06;;;;;;;8.48;5.75;;;;;;;;;;5053526;28;20029;-67
2023/10/10 02:15:36;;;;;;;7.38;5.00;;;;;;;;;;5053621;28;20465;-63
2023/10/10 02:18:44;;;;;;;9.38;5.60;;;;;;;;;;5053407;28;20519;-66
2023/10/10 02:20:51;;;;;;;9.30;5.32;;;;;;;;;;5050052;28;20087;-67
2023/10/10 02:23:34;;;;;;;8.73;5.18;;;;;;;;;;5053532;28;20025;-67
2023/10/10 02:26:14;;;;;;;7.93;4.75;;;;;;;;;;5053244;28;20112;-63
2023/10/10 02:28:47;;;;;;;9.02;5.20;;;;;;;;;;5053408;28;20108;-64
2023/10/10 02:31:15;;;;;;;8.20;5.28;;;;;;;;;;5065822;28;20098;-65
2023/10/10 02:33:49;;;;;;;11.23;5.25;;;;;;;;;;5053146;28;20482;-67
2023/10/10 02:36:16;;;;;;;9.43;5.55;;;;;;;;;;5053255;28;20035;-65
2023/10/10 02:38:55;;;;;;;11.45;5.10;;;;;;;;;;5053055;28;20021;-63
2023/10/10 02:43:55;;;;;;;10.60;5.80;;;;;;;;;;5072903;28;20107;-67
2023/10/10 02:46:42;;;;;;;8.38;5.50;;;;;;;;;;5073082;28;20029;-67
2023/10/10 02:49:12;;;;;;;10.02;5.30;;;;;;;;;;5072837;28;20033;-64
2023/10/10 02:51:42;;;;;;;8.95;5.57;;;;;;;;;;5072514;28;20449;-67
2023/10/10 02:54:21;;;;;;;;;;;;;;;;;;5073256;28;20568;-66
2023/10/10 02:56:50;;;;;;;8.98;5.30;;;;;;;;;;5072828;28;19916;-64
2023/10/10 02:59:22;;;;;;;8.57;5.32;;;;;;;;;;5068116;28;20021;-63
2023/10/10 03:04:22;;;;;;;9.05;5.40;;;;;;;;;;5052667;28;20482;-64
2023/10/10 03:06:48;;;;;;;8.20;4.90;;;;;;;;;;5052953;28;20111;-63
2023/10/10 03:09:27;;;;;;;8.30;6.03;;;;;;;;;;5052692;28;20147;-66
2023/10/10 03:11:53;;;;;;;8.48;5.13;;;;;;;;;;5052850;28;20021;-64
2023/10/10 03:14:26;;;;;;;8.27;5.35;;;;;;;;;;5052574;28;20032;-64
2023/10/10 03:17:31;;;;;;;8.73;5.63;;;;;;;;;;5052855;28;20064;-63
2023/10/10 03:20:10;;;;;;;9.15;5.82;;;;;;;;;;5052225;28;20131;-63
2023/10/10 03:23:07;;;;;;;11.20;6.20;;;;;;;;;;5056627;28;20033;-63
2023/10/10 03:25:24;;;;;;;9.02;5.65;;;;;;;;;;5056455;28;20043;-64
2023/10/10 03:27:54;;;;;;;8.50;5.50;;;;;;;;;;5056736;28;20029;-63
2023/10/10 03:30:50;;;;;;;;;;;;;;;;;;5064950;28;20035;-64
2023/10/10 03:33:29;;;;;;;10.43;5.78;;;;;;;;;;5036595;28;20007;-63
2023/10/10 03:36:00;;;;;;;9.90;5.40;;;;;;;;;;5036612;28;20546;-63
2023/10/10 03:38:44;;;;;;;8.98;5.57;;;;;;;;;;5036543;28;20419;-67
2023/10/10 05:25:07;;;;;;;11.50;6.25;;;;;;;;;;5037361;28;20083;-64
2023/10/10 05:27:33;;;;;;;10.45;5.75;;;;;;;;;;5054291;28;20031;-66
2023/10/10 05:29:59;;;;;;;11.65;6.22;;;;;;;;;;5054169;28;20107;-64
2023/10/10 05:32:30;;;;;;;9.13;5.57;;;;;;;;;;5062046;28;20032;-64
2023/10/10 05:34:55;;;;;;;;;;;;;;;;;;5074816;28;20477;-64
2023/10/10 05:37:24;;;;;;;12.20;6.40;;;;;;;;;;5074222;28;19919;-63
2023/10/10 05:39:56;;;;;;;9.85;6.60;;;;;;;;;;5074173;28;20385;-63
2023/10/10 05:42:25;;;;;;;8.32;5.68;;;;;;;;;;5034191;28;20071;-65
2023/10/10 05:44:51;;;;;;;12.52;5.80;;;;;;;;;;5033782;28;20033;-64
2023/10/10 05:47:17;;;;;;;10.85;6.32;;;;;;;;;;5034186;28;20117;-63
2023/10/10 05:49:43;;;;;;;14.88;6.30;;;;;;;;;;5033968;28;20025;-64
2023/10/10 05:52:08;;;;;;;9.77;6.50;;;;;;;;;;5033858;28;20390;-64
2023/10/10 05:54:34;;;;;;;10.13;6.47;;;;;;;;;;5034094;28;20037;-63
2023/10/10 05:56:59;;;;;;;9.95;6.50;;;;;;;;;;5033781;28;20025;-64
2023/10/10 05:59:28;;;;;;;10.98;6.47;;;;;;;;;;5036689;28;20095;-64
2023/10/10 06:01:53;;;;;;;9.18;6.80;;;;;;;;;;5040417;28;20112;-63
2023/10/10 06:04:19;;;;;;;10.93;6.95;;;;;;;;;;5033646;28;20049;-63
2023/10/10 06:06:46;;;;;;;9.65;6.43;;;;;;;;;;5032609;28;20034;-63
2023/10/10 06:09:18;;;;;;;9.23;6.45;;;;;;;;;;5033771;28;20041;-61
2023/10/10 06:11:45;;;;;;;9.30;6.57;;;;;;;;;;5033684;28;20030;-64
2023/10/10 06:14:11;;;;;;;9.27;5.93;;;;;;;;;;5031678;28;20037;-63
2023/10/10 06:16:37;;;;;;;9.80;6.35;;;;;;;;;;5033637;28;20040;-63
2023/10/10 06:19:03;;;;;;;11.15;6.38;;;;;;;;;;5033470;28;20030;-63
2023/10/10 06:21:29;;;;;;;10.52;6.80;;;;;;;;;;5033524;28;20061;-63
2023/10/10 06:23:55;;;;;;;9.35;6.30;;;;;;;;;;5033678;28;20021;-63
2023/10/10 06:26:24;;;;;;;12.00;5.82;;;;;;;;;;5046171;28;20386;-63
2023/10/10 06:28:53;;;;;;;11.32;6.25;;;;;;;;;;5051790;28;20044;-67
2023/10/10 06:31:19;;;;;;;9.30;6.50;;;;;;;;;;5053415;28;20033;-65
2023/10/10 06:33:52;;;;;;;9.65;5.93;;;;;;;;;;5058181;28;20039;-64
2023/10/10 06:39:18;;;;;;;11.23;5.90;;;;;;;;;;5065341;28;20028;-64
2023/10/10 06:41:50;;;;;;;13.43;6.50;;;;;;;;;;5063232;28;20032;-64
2023/10/10 06:44:17;;;;;;;10.27;5.30;;;;;;;;;;5063892;28;20037;-64
2023/10/10 06:46:48;;;;;;;8.20;5.65;;;;;;;;;;5064969;28;20462;-64
2023/10/10 06:49:13;;;;;;;;;;;;;;;;;;5056116;28;20029;-63
2023/10/10 06:51:39;;;;;;;8.48;5.28;;;;;;;;;;5068557;28;20456;-65
2023/10/10 06:54:27;;;;;;;11.93;6.30;;;;;;;;;;5059882;28;20036;-64
2023/10/10 06:59:28;;;;;;;9.07;5.80;;;;;;;;;;5039862;28;20021;-64
2023/10/10 07:01:57;;;;;;;9.57;5.72;;;;;;;;;;5047321;28;20083;-64
2023/10/10 07:04:23;;;;;;;9.18;5.72;;;;;;;;;;5047296;28;20025;-63
2023/10/10 07:06:50;;;;;;;9.55;6.35;;;;;;;;;;5060442;28;20052;-64
2023/10/10 07:09:27;;;;;;;9.60;6.00;;;;;;;;;;5066118;28;20032;-64
2023/10/10 07:11:54;;;;;;;12.85;6.13;;;;;;;;;;5052572;28;20454;-63
2023/10/10 07:14:19;;;;;;;9.20;6.30;;;;;;;;;;5050962;28;20032;-64
2023/10/10 07:16:45;;;;;;;10.23;6.38;;;;;;;;;;5052463;28;20028;-63
2023/10/10 07:19:23;;;;;;;8.45;5.80;;;;;;;;;;5052261;28;20036;-64
2023/10/10 07:21:51;;;;;;;9.23;6.15;;;;;;;;;;5052541;28;20079;-64
2023/10/10 07:24:17;;;;;;;9.48;6.28;;;;;;;;;;5052208;28;20090;-64
2023/10/10 07:26:44;;;;;;;11.27;6.13;;;;;;;;;;5051991;28;20021;-64
2023/10/10 07:29:57;;;;;;;11.30;5.88;;;;;;;;;;5065716;28;20033;-63
2023/10/10 07:32:17;;;;;;;9.68;6.20;;;;;;;;;;5057336;28;20077;-63
2023/10/10 07:34:49;;;;;;;7.88;5.57;;;;;;;;;;5061599;28;20385;-64
2023/10/10 07:37:15;;;;;;;8.70;6.05;;;;;;;;;;5052345;28;20026;-67
2023/10/10 07:39:57;;;;;;;13.10;7.00;;;;;;;;;;5052162;28;20033;-67
2023/10/10 07:42:27;;;;;;;8.63;5.40;;;;;;;;;;5032180;28;20083;-67
2023/10/10 07:45:03;;;;;;;9.48;6.25;;;;;;;;;;5032160;28;20048;-67
2023/10/10 07:48:20;;;;;;;8.85;6.28;;;;;;;;;;5032043;28;20505;-68
2023/10/10 07:50:24;;;;;;;9.50;6.18;;;;;;;;;;5031933;28;20029;-67
2023/10/10 07:52:52;;;;;;;7.78;5.70;;;;;;;;;;5044100;28;20044;-67
2023/10/10 07:55:17;;;;;;;10.73;6.55;;;;;;;;;;5051925;28;20029;-67
2023/10/10 07:58:06;;;;;;;12.25;5.95;;;;;;;;;;5052115;28;20024;-66
2023/10/10 08:00:39;;;;;;;7.97;5.47;;;;;;;;;;5051913;28;20025;-67
2023/10/10 08:03:16;;;;;;;10.07;6.28;;;;;;;;;;5051554;28;20037;-64
2023/10/10 08:05:42;;;;;;;9.73;5.60;;;;;;;;;;5052063;28;20493;-65
2023/10/10 08:08:13;;;;;;;9.82;6.25;;;;;;;;;;5054836;28;20025;-63
2023/10/10 08:10:38;;;;;;;8.55;5.93;;;;;;;;;;5036122;28;20048;-63
2023/10/10 08:13:14;;;;;;;10.02;6.28;;;;;;;;;;5035531;28;20038;-65
2023/10/10 08:16:01;;;;;;;9.95;6.30;;;;;;;;;;5035723;28;20470;-67
2023/10/10 08:21:11;;;;;;;9.07;5.45;;;;;;;;;;5035712;28;20045;-64
2023/10/10 08:23:42;;;;;;;10.52;6.07;;;;;;;;;;5035370;28;20076;-63
2023/10/10 08:26:17;;;;;;;8.00;5.28;;;;;;;;;;5045576;28;20116;-65
2023/10/10 08:28:47;;;;;;;11.60;6.03;;;;;;;;;;5055026;28;20470;-65
2023/10/10 08:31:15;;;;;;;8.60;5.30;;;;;;;;;;5055262;28;20032;-64
2023/10/10 08:33:44;;;;;;;11.45;6.18;;;;;;;;;;5058657;28;20442;-64
2023/10/10 08:36:12;;;;;;;11.52;5.95;;;;;;;;;;5074121;28;20506;-64
2023/10/10 08:38:42;;;;;;;10.40;5.93;;;;;;;;;;5074852;28;20470;-65
2023/10/10 08:41:08;;;;;;;;;;;;;;;;;;5065062;28;20040;-64
2023/10/10 08:43:39;;;;;;;6.78;3.65;;;;;;;;;;5055155;28;19913;-64
2023/10/10 08:46:08;;;;;;;;;;;;;;;;;;5055428;28;20021;-65
2023/10/10 08:48:36;;;;;;;9.70;5.28;;;;;;;;;;5054709;28;19916;-64
2023/10/10 08:51:04;;;;;;;6.78;4.75;;;;;;;;;;5054549;28;20037;-65
2023/10/10 08:53:36;;;;;;;6.97;4.47;;;;;;;;;;5053935;28;20520;-66
2023/10/10 08:56:03;;;;;;;9.27;5.05;;;;;;;;;;5054814;28;20470;-64
2023/10/10 08:58:31;;;;;;;8.52;4.88;;;;;;;;;;5053271;28;20108;-64
2023/10/10 09:01:05;;;;;;;7.80;4.68;;;;;;;;;;5054177;28;20079;-64
2023/10/10 09:03:34;;;;;;;6.25;4.10;;;;;;;;;;5052819;28;20021;-63
2023/10/10 09:06:19;;;;;;;9.63;5.22;;;;;;;;;;5052955;28;20021;-64
2023/10/10 09:08:49;;;;;;;5.97;4.82;;;;;;;;;;5050606;28;20100;-63
2023/10/10 09:11:15;;;;;;;;;;;;;;;;;;5035052;28;20021;-64
2023/10/10 09:13:52;;;;;;;7.53;4.15;;;;;;;;;;5034340;28;19920;-64
2023/10/10 09:16:40;;;;;;;9.35;4.00;;;;;;;;;;5034534;28;20088;-64
2023/10/10 09:19:09;;;;;;;6.50;3.92;;;;;;;;;;5033888;28;20029;-64
2023/10/10 09:21:50;;;;;;;6.00;3.40;;;;;;;;;;5034109;28;20026;-63
2023/10/10 09:24:31;;;;;;;5.32;3.20;;;;;;;;;;5034319;28;20108;-64
2023/10/10 09:26:59;;;;;;;5.47;3.00;;;;;;;;;;5051067;28;20067;-63
2023/10/10 09:29:34;;;;;;;6.00;3.08;;;;;;;;;;5054144;28;20048;-65
2023/10/10 09:32:00;;;;;;;5.60;2.83;;;;;;;;;;5054285;28;20060;-64
2023/10/10 09:34:35;;;;;;;5.57;2.60;;;;;;;;;;5061234;28;20082;-63
2023/10/10 09:37:05;;;;;;;5.13;2.67;;;;;;;;;;5073673;28;20436;-63
2023/10/10 09:39:37;;;;;;;4.47;2.63;;;;;;;;;;5073960;28;20389;-63
2023/10/10 09:52:53;;;;;;;9.15;3.08;;;;;;;;;;5053463;28;20037;-64
2023/10/10 09:58:00;;;;;;;5.85;3.63;;;;;;;;;;5053625;28;20025;-64
2023/10/10 10:06:27;;;;;;;6.57;4.20;;;;;;;;;;5053291;28;20035;-63
2023/10/10 10:09:08;;;;;;;6.55;4.05;;;;;;;;;;5048307;28;20033;-64
2023/10/10 10:11:56;;;;;;;9.85;4.63;;;;;;;;;;5033366;28;20052;-63
2023/10/10 10:14:35;;;;;;;6.95;3.88;;;;;;;;;;5033360;28;20036;-64
2023/10/10 10:17:47;;;;;;;5.30;3.60;;;;;;;;;;5033342;28;20028;-63
2023/10/10 10:20:20;;;;;;;5.03;3.60;;;;;;;;;;5033151;28;20025;-65
2023/10/10 10:22:53;;;;;;;4.28;3.15;;;;;;;;;;5033384;28;20029;-63
2023/10/10 10:25:22;;;;;;;4.53;3.10;;;;;;;;;;5037702;28;20512;-65
2023/10/10 10:27:51;;;;;;;4.72;3.22;;;;;;;;;;5051353;28;20051;-63
2023/10/10 10:32:54;;;;;;;4.05;3.28;;;;;;;;;;5053052;28;20025;-68
2023/10/10 10:35:22;;;;;;;4.40;3.22;;;;;;;;;;5057625;28;20024;-64
2023/10/10 10:37:55;;;;;;;4.60;3.40;;;;;;;;;;5072971;28;20024;-64
2023/10/10 10:40:41;;;;;;;11.68;4.35;;;;;;;;;;5069002;28;20025;-68
2023/10/10 10:43:14;;;;;;;5.28;3.53;;;;;;;;;;5052947;28;20048;-68
2023/10/10 10:45:44;;;;;;;6.05;4.32;;;;;;;;;;5052761;28;20033;-67
2023/10/10 10:48:47;;;;;;;4.60;2.80;;;;;;;;;;5052398;28;20541;-67
2023/10/10 10:51:22;;;;;;;5.10;3.33;;;;;;;;;;5051213;28;20060;-65
2023/10/10 10:53:58;;;;;;;4.68;2.92;;;;;;;;;;5051368;28;20460;-67
2023/10/10 10:59:19;;;;;;;4.70;3.40;;;;;;;;;;5052645;28;20024;-67
2023/10/10 11:01:54;;;;;;;6.27;4.10;;;;;;;;;;5049223;28;20116;-64
2023/10/10 11:07:00;;;;;;;7.88;4.63;;;;;;;;;;5052195;28;20021;-68
2023/10/10 11:09:32;;;;;;;6.72;5.60;;;;;;;;;;5043006;28;20374;-67
2023/10/10 11:12:02;;;;;;;13.02;5.43;;;;;;;;;;5032833;28;20040;-67
2023/10/10 11:14:46;;;;;;;;;;;;;;;;;;5033069;28;20437;-68
2023/10/10 11:17:18;;;;;;;7.20;5.80;;;;;;;;;;5030877;28;20364;-67
2023/10/10 11:19:47;;;;;;;9.32;5.65;;;;;;;;;;5032367;28;20029;-67
2023/10/10 11:22:38;;;;;;;8.20;6.30;;;;;;;;;;5032651;28;20087;-66
2023/10/10 11:25:04;;;;;;;7.00;5.93;;;;;;;;;;5034186;28;20107;-63
2023/10/10 11:27:33;;;;;;;13.80;6.32;;;;;;;;;;5052207;28;20029;-64
2023/10/10 11:30:03;;;;;;;6.50;5.22;;;;;;;;;;5052490;28;20432;-64
2023/10/10 11:32:48;;;;;;;10.70;6.50;;;;;;;;;;5052242;28;20398;-68
2023/10/10 11:35:25;;;;;;;9.52;5.72;;;;;;;;;;5052619;28;20109;-66
2023/10/10 11:38:08;;;;;;;8.10;5.28;;;;;;;;;;5072214;28;20103;-67
2023/10/10 11:40:36;;;;;;;7.20;5.53;;;;;;;;;;5066529;28;20017;-64
2023/10/10 11:43:03;;;;;;;7.20;5.45;;;;;;;;;;5054876;28;20435;-64
2023/10/10 11:45:30;;;;;;;9.75;6.00;;;;;;;;;;5056150;28;20474;-64
2023/10/10 11:48:00;;;;;;;8.68;5.07;;;;;;;;;;5055991;28;20033;-64
2023/10/10 11:50:43;;;;;;;6.70;5.20;;;;;;;;;;5054962;28;20037;-64
2023/10/10 11:53:12;;;;;;;7.72;5.60;;;;;;;;;;5055671;28;20513;-64
2023/10/10 11:55:40;;;;;;;9.05;5.45;;;;;;;;;;5055810;28;20090;-65
2023/10/10 11:58:16;;;;;;;5.97;4.82;;;;;;;;;;5055994;28;20029;-64
2023/10/10 12:00:45;;;;;;;6.80;4.82;;;;;;;;;;5054200;28;20378;-64
2023/10/10 12:04:06;;;;;;;7.75;4.93;;;;;;;;;;5055877;28;20120;-64
2023/10/10 12:06:03;;;;;;;13.32;7.07;;;;;;;;;;5055169;28;20097;-64
2023/10/10 12:08:29;;;;;;;8.88;4.40;;;;;;;;;;5053815;28;20487;-64
2023/10/10 12:11:06;;;;;;;5.97;4.53;;;;;;;;;;5035750;28;20079;-64
2023/10/10 12:15:58;;;;;;;6.65;4.65;;;;;;;;;;5035540;28;20431;-66
2023/10/10 12:18:30;;;;;;;7.05;3.90;;;;;;;;;;5035622;28;20025;-65
2023/10/10 12:21:01;;;;;;;6.22;4.35;;;;;;;;;;5035632;28;20029;-64
2023/10/10 12:23:27;;;;;;;5.57;3.75;;;;;;;;;;5035230;28;20108;-64
2023/10/10 12:25:54;;;;;;;10.40;7.18;;;;;;;;;;5044992;28;20025;-66
2023/10/10 12:28:20;;;;;;;5.15;3.78;;;;;;;;;;5055166;28;20025;-65
2023/10/10 12:30:46;;;;;;;5.05;3.88;;;;;;;;;;5055089;28;20360;-68
2023/10/10 12:33:16;;;;;;;5.35;4.13;;;;;;;;;;5055394;28;20036;-67
2023/10/10 12:35:48;;;;;;;7.85;4.00;;;;;;;;;;5055353;28;20033;-68
2023/10/10 12:38:20;;;;;;;7.57;4.30;;;;;;;;;;5073672;28;20024;-67
2023/10/10 12:40:54;;;;;;;7.15;3.97;;;;;;;;;;5067919;28;20048;-64
2023/10/10 12:43:21;;;;;;;7.28;4.45;;;;;;;;;;5055284;28;20577;-64
2023/10/10 12:45:47;;;;;;;7.75;4.50;;;;;;;;;;5054875;28;20035;-63
2023/10/10 12:48:14;;;;;;;5.78;4.07;;;;;;;;;;5055002;28;20045;-64
2023/10/10 12:50:41;;;;;;;8.63;4.57;;;;;;;;;;5054794;28;20359;-63
2023/10/10 12:53:14;;;;;;;9.30;5.00;;;;;;;;;;5053799;28;20045;-64
2023/10/10 12:55:48;;;;;;;7.43;4.60;;;;;;;;;;5053391;28;20033;-64
2023/10/10 12:58:20;;;;;;;7.35;4.53;;;;;;;;;;5054908;28;20040;-67
2023/10/10 13:00:52;;;;;;;5.22;4.07;;;;;;;;;;5054825;28;20021;-64
2023/10/10 13:03:27;;;;;;;6.28;4.35;;;;;;;;;;5054534;28;20025;-63
2023/10/10 13:06:04;;;;;;;5.40;4.38;;;;;;;;;;5054913;28;20473;-63
2023/10/10 13:08:55;;;;;;;10.73;5.13;;;;;;;;;;5052674;28;20371;-64
2023/10/10 13:11:32;;;;;;;9.05;4.97;;;;;;;;;;5033575;28;20429;-64
2023/10/10 13:14:08;;;;;;;6.72;4.68;;;;;;;;;;5034453;28;20116;-65
2023/10/10 13:19:09;;;;;;;10.55;5.38;;;;;;;;;;5034309;28;20025;-64
2023/10/10 13:21:38;;;;;;;7.40;5.65;;;;;;;;;;5034478;28;20035;-64
2023/10/10 13:24:09;;;;;;;9.77;4.65;;;;;;;;;;5034612;28;20017;-65
2023/10/10 13:26:42;;;;;;;8.23;5.18;;;;;;;;;;5049606;28;20020;-68
2023/10/10 13:29:08;;;;;;;5.63;4.13;;;;;;;;;;5053810;28;20024;-67
2023/10/10 13:31:34;;;;;;;7.70;4.28;;;;;;;;;;5054135;28;20121;-62
2023/10/10 13:34:00;;;;;;;5.93;4.10;;;;;;;;;;5054214;28;20037;-64
2023/10/10 13:36:26;;;;;;;7.60;3.97;;;;;;;;;;5054155;28;20037;-68
2023/10/10 13:39:00;;;;;;;5.35;3.65;;;;;;;;;;5072316;28;20024;-65
2023/10/10 13:41:29;;;;;;;5.57;3.70;;;;;;;;;;5061329;28;20051;-66
2023/10/10 13:43:59;;;;;;;9.88;3.85;;;;;;;;;;5053692;28;20049;-68
2023/10/10 13:46:26;;;;;;;4.43;3.08;;;;;;;;;;5054066;28;20025;-67
2023/10/10 13:48:52;;;;;;;3.85;2.80;;;;;;;;;;5052493;28;20029;-68
2023/10/10 13:51:17;;;;;;;6.47;3.30;;;;;;;;;;5053695;28;20101;-68
2023/10/10 13:53:44;;;;;;;3.88;2.78;;;;;;;;;;5053566;28;20037;-68
2023/10/10 13:56:16;;;;;;;5.90;3.45;;;;;;;;;;5053935;28;20029;-68
2023/10/10 13:58:47;;;;;;;4.15;2.60;;;;;;;;;;5053762;28;20017;-67
2023/10/10 14:03:45;;;;;;;6.28;2.65;;;;;;;;;;5053754;28;20025;-67
2023/10/10 14:06:13;;;;;;;5.00;2.35;;;;;;;;;;5053527;28;20162;-66
2023/10/10 14:08:47;;;;;;;3.22;2.50;;;;;;;;;;5049862;28;20021;-67
2023/10/10 14:11:20;;;;;;;3.20;2.33;;;;;;;;;;5033476;28;20117;-67
2023/10/10 14:13:48;;;;;;;9.80;2.30;;;;;;;;;;5033452;28;20026;-68
2023/10/10 14:16:13;;;;;;;4.18;2.45;;;;;;;;;;5033586;28;20029;-67
2023/10/10 14:18:42;;;;;;;2.70;1.77;;;;;;;;;;5033474;28;20382;-67
2023/10/10 14:21:11;;;;;;;2.50;1.80;;;;;;;;;;5033280;28;20030;-67
2023/10/10 14:23:41;;;;;;;3.88;1.88;;;;;;;;;;5033369;28;20040;-66
2023/10/10 14:26:16;;;;;;;4.38;2.05;;;;;;;;;;5043178;28;20532;-68
2023/10/10 14:29:32;;;;;;;4.20;2.30;;;;;;;;;;5053093;28;20108;-67
2023/10/10 14:31:34;;;;;;;4.50;2.08;;;;;;;;;;5049956;28;20036;-68
2023/10/10 14:34:01;;;;;;;4.30;2.50;;;;;;;;;;5052583;28;20044;-67
2023/10/10 14:36:30;;;;;;;3.28;1.98;;;;;;;;;;5052851;28;20029;-64
2023/10/10 14:38:57;;;;;;;3.90;2.40;;;;;;;;;;5060218;28;20039;-64
2023/10/10 14:41:24;;;;;;;3.28;1.90;;;;;;;;;;5060221;28;20116;-64
2023/10/10 14:43:51;;;;;;;6.00;2.20;;;;;;;;;;5052933;28;20377;-64
2023/10/10 14:46:21;;;;;;;3.38;2.00;;;;;;;;;;5052867;28;20100;-64
2023/10/10 14:51:37;;;;;;;2.75;1.67;;;;;;;;;;5052712;28;20084;-64
2023/10/10 14:54:06;;;;;;;4.65;2.40;;;;;;;;;;5052629;28;20072;-63
2023/10/10 14:56:37;;;;;;;4.30;3.08;;;;;;;;;;5052219;28;20029;-64
2023/10/10 14:59:04;;;;;;;3.78;1.90;;;;;;;;;;5052366;28;20393;-64
2023/10/10 15:01:36;;;;;;;5.20;2.28;;;;;;;;;;5047093;28;20029;-63
2023/10/10 15:04:03;;;;;;;3.45;2.00;;;;;;;;;;5052746;28;20017;-63
2023/10/10 15:06:29;;;;;;;5.05;2.10;;;;;;;;;;5052304;28;20456;-62
2023/10/10 15:08:55;;;;;;;3.83;2.10;;;;;;;;;;5051471;28;20112;-63
2023/10/10 15:11:29;;;;;;;7.90;2.00;;;;;;;;;;5052709;28;20029;-63
2023/10/10 15:13:56;;;;;;;2.50;1.95;;;;;;;;;;5052530;28;20029;-63
2023/10/10 15:16:23;;;;;;;3.38;1.70;;;;;;;;;;5052011;28;20064;-63
2023/10/10 15:18:54;;;;;;;4.22;2.40;;;;;;;;;;5052628;28;20390;-64
2023/10/10 15:21:21;;;;;;;4.55;2.20;;;;;;;;;;5052435;28;20036;-62
2023/10/10 15:23:47;;;;;;;2.83;1.92;;;;;;;;;;5052096;28;20410;-63
2023/10/10 15:26:20;;;;;;;3.28;1.90;;;;;;;;;;5052303;28;20025;-63
2023/10/10 15:28:46;;;;;;;3.60;2.28;;;;;;;;;;5051184;28;20025;-65
2023/10/10 15:31:12;;;;;;;3.97;2.15;;;;;;;;;;5052087;28;20029;-63
2023/10/10 15:33:43;;;;;;;3.50;2.40;;;;;;;;;;5052113;28;20033;-63
2023/10/10 15:36:11;;;;;;;5.55;2.70;;;;;;;;;;5052308;28;20028;-62
2023/10/10 15:38:38;;;;;;;4.53;2.97;;;;;;;;;;5055500;28;20020;-64
2023/10/10 15:41:19;;;;;;;5.05;2.90;;;;;;;;;;5051602;28;20100;-63
2023/10/10 15:43:49;;;;;;;6.15;3.03;;;;;;;;;;5052170;28;20029;-63
2023/10/10 15:46:15;;;;;;;4.27;2.53;;;;;;;;;;5050955;28;20029;-64
2023/10/10 15:48:48;;;;;;;5.50;3.03;;;;;;;;;;5052110;28;20036;-64
2023/10/10 15:51:20;;;;;;;4.53;2.70;;;;;;;;;;5051907;28;20048;-63
2023/10/10 15:53:46;;;;;;;5.70;3.10;;;;;;;;;;5051588;28;20031;-63
2023/10/10 15:56:13;;;;;;;4.10;2.38;;;;;;;;;;5052064;28;20104;-62
2023/10/10 15:58:43;;;;;;;5.40;2.97;;;;;;;;;;5051847;28;20028;-65
2023/10/10 16:01:11;;;;;;;5.75;3.08;;;;;;;;;;5051607;28;20037;-63
2023/10/10 16:03:38;;;;;;;4.90;3.20;;;;;;;;;;5051884;28;20060;-63
2023/10/10 16:06:08;;;;;;;4.30;3.15;;;;;;;;;;5051612;28;20040;-62
2023/10/10 16:08:35;;;;;;;5.15;3.78;;;;;;;;;;5049395;28;20029;-63
2023/10/10 16:11:02;;;;;;;5.38;3.72;;;;;;;;;;5030648;28;20033;-63
2023/10/10 16:13:27;;;;;;;4.45;3.80;;;;;;;;;;5031940;28;20072;-63
2023/10/10 16:15:56;;;;;;;7.10;3.97;;;;;;;;;;5047582;28;20283;-66
2023/10/10 16:18:23;;;;;;;7.95;4.97;;;;;;;;;;5051544;28;20044;-62
2023/10/10 16:20:48;;;;;;;7.13;4.22;;;;;;;;;;5051828;28;20028;-62
2023/10/10 16:23:15;;;;;;;6.65;4.60;;;;;;;;;;5051662;28;20109;-63
2023/10/10 16:25:40;;;;;;;10.27;5.32;;;;;;;;;;5051028;28;20040;-64
2023/10/10 16:28:06;;;;;;;6.03;4.20;;;;;;;;;;5051390;28;20017;-63
2023/10/10 16:30:35;;;;;;;5.22;4.18;;;;;;;;;;5054579;28;20051;-64
2023/10/10 16:33:00;;;;;;;7.18;4.47;;;;;;;;;;5054551;28;20017;-66
2023/10/10 16:35:26;;;;;;;6.68;3.97;;;;;;;;;;5054716;28;20446;-63
2023/10/10 16:37:53;;;;;;;6.50;4.32;;;;;;;;;;5054640;28;20378;-63
2023/10/10 16:40:20;;;;;;;9.02;4.22;;;;;;;;;;5065824;28;20032;-64
2023/10/10 16:42:46;;;;;;;6.75;4.40;;;;;;;;;;5054898;28;20351;-63
2023/10/10 16:45:11;;;;;;;9.13;5.10;;;;;;;;;;5054784;28;20039;-64
2023/10/10 16:47:41;;;;;;;6.43;4.80;;;;;;;;;;5054424;28;20106;-67
2023/10/10 16:50:08;;;;;;;6.65;5.13;;;;;;;;;;5054667;28;20025;-65
2023/10/10 16:52:36;;;;;;;6.07;4.68;;;;;;;;;;5054284;28;20045;-68
2023/10/10 16:55:09;;;;;;;8.05;5.00;;;;;;;;;;5054469;28;20023;-66
2023/10/10 16:57:36;;;;;;;6.90;5.03;;;;;;;;;;5055113;28;20036;-67
2023/10/10 17:00:11;;;;;;;8.77;5.18;;;;;;;;;;5054738;28;20021;-68
2023/10/10 17:02:38;;;;;;;9.82;5.40;;;;;;;;;;5055192;28;20036;-69
2023/10/10 17:05:05;;;;;;;7.85;5.22;;;;;;;;;;5054673;28;20029;-68
2023/10/10 17:07:31;;;;;;;10.32;5.57;;;;;;;;;;5054417;28;20040;-69
2023/10/10 17:09:57;;;;;;;13.00;5.60;;;;;;;;;;5054625;28;20021;-70
2023/10/10 17:12:22;;;;;;;7.53;5.60;;;;;;;;;;5054766;28;20029;-68
2023/10/10 17:14:48;;;;;;;9.30;5.32;;;;;;;;;;5054732;28;20386;-65
2023/10/10 17:17:13;;;;;;;7.85;5.75;;;;;;;;;;5054701;28;20037;-67
2023/10/10 17:19:38;;;;;;;10.27;6.38;;;;;;;;;;5054503;28;20028;-68
2023/10/10 17:22:04;;;;;;;8.32;5.85;;;;;;;;;;5054470;28;20029;-68
2023/10/10 17:24:31;;;;;;;7.55;5.65;;;;;;;;;;5054484;28;20033;-68
2023/10/10 17:26:56;;;;;;;10.93;5.97;;;;;;;;;;5054073;28;20027;-68
2023/10/10 17:29:23;;;;;;;9.57;5.25;;;;;;;;;;5054518;28;20112;-68
2023/10/10 17:31:52;;;;;;;15.20;7.38;;;;;;;;;;5054338;28;20526;-67
2023/10/10 17:34:21;;;;;;;11.00;6.97;;;;;;;;;;5054065;28;20090;-65
2023/10/10 17:36:47;;;;;;;8.65;6.03;;;;;;;;;;5054363;28;20061;-68
2023/10/10 17:39:15;;;;;;;8.95;6.25;;;;;;;;;;5057131;28;20090;-67
2023/10/10 17:41:40;;;;;;;8.60;6.05;;;;;;;;;;5059340;28;20463;-64
2023/10/10 17:44:08;;;;;;;9.20;5.68;;;;;;;;;;5054313;28;20116;-64
2023/10/10 17:46:34;;;;;;;8.13;5.90;;;;;;;;;;5054227;28;20479;-64
2023/10/10 17:49:00;;;;;;;9.02;6.28;;;;;;;;;;5053720;28;20119;-63